aviador You're here:

KSHM Decoded Metar

in
Report Time2017-08-16 18:58:00
UTC Time2017-08-16 19:30:21
Flight Rules vfr VFR
Wind230° at 08 kt
W.Rank230° ranks 22
Current wind is above 230° avg. (7.0)
Visibility9999 m
Phenomena:N/A
Clouds:Broken 049 Hf
Expected CloudBase > 4,800 ft AGL from Temp-Dew spread
Ceiling4,900 ft
Temp20°C
Dew Point08°C (46% RH)
AAT16.7°C
QNH1022 hPa
Raw Report
KSHM 161858Z AUTO 23008KT 10SM BKN049 20/08 A3018 RMK AO2 LTG DSNT
N SLP159 T02010075 $=

Extra information for KSHM:More info

Social comments